createdAt,value
2023-03-03T00:00:50.879Z,-1.00
2023-03-03T00:03:23.320Z,-1.06
2023-03-03T00:05:52.102Z,-1.12
2023-03-03T00:08:23.759Z,-1.19
2023-03-03T00:10:52.875Z,-1.24
2023-03-03T00:13:23.085Z,-1.26
2023-03-03T00:15:54.723Z,-1.24
2023-03-03T00:18:29.455Z,-1.27
2023-03-03T00:21:01.242Z,-1.26
2023-03-03T00:23:34.041Z,-1.29
2023-03-03T00:26:04.930Z,-1.39
2023-03-03T00:28:43.008Z,-1.44
2023-03-03T00:31:19.583Z,-1.54
2023-03-03T00:33:55.671Z,-1.58
2023-03-03T00:36:31.842Z,-1.58
2023-03-03T00:39:27.866Z,-1.58
2023-03-03T00:41:57.223Z,-1.54
2023-03-03T00:44:46.462Z,-1.52
2023-03-03T00:47:31.016Z,-1.50
2023-03-03T00:50:27.995Z,-1.50
2023-03-03T00:53:12.089Z,-1.44
2023-03-03T00:55:43.209Z,-1.44
2023-03-03T00:58:15.598Z,-1.40
2023-03-03T01:00:43.840Z,-1.39
2023-03-03T01:03:16.553Z,-1.36
2023-03-03T01:05:47.434Z,-1.40
2023-03-03T01:08:17.171Z,-1.44
2023-03-03T01:10:51.196Z,-1.50
2023-03-03T01:13:20.396Z,-1.47
2023-03-03T01:15:49.986Z,-1.52
2023-03-03T01:18:20.059Z,-1.52
2023-03-03T01:20:50.985Z,-1.52
2023-03-03T01:23:23.573Z,-1.57
2023-03-03T01:25:53.325Z,-1.54
2023-03-03T01:28:22.884Z,-1.50
2023-03-03T01:30:50.955Z,-1.50
2023-03-03T01:33:20.835Z,-1.47
2023-03-03T01:35:51.055Z,-1.48
2023-03-03T01:38:19.378Z,-1.52
2023-03-03T01:40:54.581Z,-1.50
2023-03-03T01:43:26.890Z,-1.51
2023-03-03T01:46:35.392Z,-1.48
2023-03-03T01:49:08.455Z,-1.47
2023-03-03T01:51:40.827Z,-1.47
2023-03-03T01:54:14.382Z,-1.44
2023-03-03T01:56:45.998Z,-1.46
2023-03-03T01:59:16.821Z,-1.48
2023-03-03T02:01:45.519Z,-1.47
2023-03-03T02:04:13.780Z,-1.48
2023-03-03T02:06:49.151Z,-1.46
2023-03-03T02:09:26.113Z,-1.46
2023-03-03T02:12:02.049Z,-1.44
2023-03-03T02:14:31.971Z,-1.43
2023-03-03T02:17:00.247Z,-1.43
2023-03-03T02:19:34.562Z,-1.41
2023-03-03T02:22:04.888Z,-1.41
2023-03-03T02:24:36.705Z,-1.40
2023-03-03T02:27:06.597Z,-1.37
2023-03-03T02:29:38.124Z,-1.43
2023-03-03T02:32:18.591Z,-1.39
2023-03-03T02:34:52.346Z,-1.37
2023-03-03T02:37:22.062Z,-1.36
2023-03-03T02:39:52.658Z,-1.37
2023-03-03T02:42:25.267Z,-1.36
2023-03-03T02:44:53.631Z,-1.30
2023-03-03T02:47:21.949Z,-1.29
2023-03-03T02:49:50.461Z,-1.26
2023-03-03T02:52:19.182Z,-1.26
2023-03-03T02:54:49.461Z,-1.23
2023-03-03T02:57:18.067Z,-1.23
2023-03-03T02:59:47.789Z,-1.20
2023-03-03T03:02:15.956Z,-1.17
2023-03-03T03:04:47.041Z,-1.17
2023-03-03T03:07:15.916Z,-1.14
2023-03-03T03:09:47.592Z,-1.16
2023-03-03T03:12:19.579Z,-1.13
2023-03-03T03:14:49.761Z,-1.12
2023-03-03T03:17:20.705Z,-1.12
2023-03-03T03:19:49.758Z,-1.12
2023-03-03T03:22:19.515Z,-1.12
2023-03-03T03:24:47.588Z,-1.16
2023-03-03T03:27:16.033Z,-1.19
2023-03-03T03:29:44.732Z,-1.20
2023-03-03T03:32:17.351Z,-1.26
2023-03-03T03:34:45.607Z,-1.20
2023-03-03T03:37:16.805Z,-1.21
2023-03-03T03:39:45.303Z,-1.20
2023-03-03T03:42:13.647Z,-1.17
2023-03-03T03:44:42.099Z,-1.19
2023-03-03T03:47:11.594Z,-1.19
2023-03-03T03:49:41.790Z,-1.17
2023-03-03T03:52:11.032Z,-1.14
2023-03-03T03:54:39.785Z,-1.14
2023-03-03T03:57:08.526Z,-1.13
2023-03-03T04:09:13.587Z,-1.06
2023-03-03T04:11:56.318Z,-1.07
2023-03-03T04:14:25.927Z,-1.04
2023-03-03T04:16:56.311Z,-1.09
2023-03-03T04:25:05.617Z,-1.09
2023-03-03T04:27:35.676Z,-1.12
2023-03-03T04:30:07.575Z,-1.10
2023-03-03T04:32:51.484Z,-1.09
2023-03-03T04:38:22.550Z,-1.14
2023-03-03T04:41:08.056Z,-1.12
2023-03-03T04:43:40.156Z,-1.12
2023-03-03T04:49:08.073Z,-1.13
2023-03-03T04:51:38.282Z,-1.13
2023-03-03T04:54:06.667Z,-1.12
2023-03-03T04:56:41.786Z,-1.14
2023-03-03T05:11:00.180Z,-1.00
2023-03-03T05:13:30.423Z,-1.04
2023-03-03T05:16:00.605Z,-1.02
2023-03-03T05:18:44.164Z,-1.07
2023-03-03T05:21:13.035Z,-1.03
2023-03-03T05:23:41.299Z,-1.07
2023-03-03T05:26:09.700Z,-1.07
2023-03-03T05:28:41.496Z,-1.07
2023-03-03T05:31:14.690Z,-1.04
2023-03-03T05:33:43.783Z,-1.06
2023-03-03T05:36:12.082Z,-1.03
2023-03-03T05:38:40.845Z,-1.03
2023-03-03T05:41:11.648Z,-1.02
2023-03-03T05:43:55.632Z,-1.00
2023-03-03T05:46:24.448Z,-1.00
2023-03-03T05:48:53.697Z,-0.96
2023-03-03T05:51:22.335Z,-0.96
2023-03-03T05:53:51.938Z,-0.96
2023-03-03T05:56:20.549Z,-0.97
2023-03-03T05:58:51.317Z,-0.95
2023-03-03T06:01:19.764Z,-0.92
2023-03-03T06:03:52.204Z,-0.93
2023-03-03T06:06:20.870Z,-0.83
2023-03-03T06:08:55.524Z,-0.86
2023-03-03T06:11:25.268Z,-0.81
2023-03-03T06:13:55.005Z,-0.86
2023-03-03T06:16:23.880Z,-0.82
2023-03-03T06:18:54.688Z,-0.83
2023-03-03T06:21:24.553Z,-0.79
2023-03-03T06:23:52.887Z,-0.76
2023-03-03T06:26:23.211Z,-0.73
2023-03-03T06:28:55.248Z,-0.69
2023-03-03T06:31:24.924Z,-0.71
2023-03-03T06:33:54.092Z,-0.69
2023-03-03T06:36:23.710Z,-0.69
2023-03-03T06:38:52.152Z,-0.69
2023-03-03T06:41:21.115Z,-0.71
2023-03-03T06:43:49.404Z,-0.72
2023-03-03T06:46:18.392Z,-0.76
2023-03-03T06:48:48.101Z,-0.79
2023-03-03T06:51:25.041Z,-0.82
2023-03-03T06:53:55.992Z,-0.79
2023-03-03T06:56:27.288Z,-0.79
2023-03-03T06:58:57.933Z,-0.73
2023-03-03T07:01:26.263Z,-0.69
2023-03-03T07:03:56.542Z,-0.69
2023-03-03T07:06:26.802Z,-0.68
2023-03-03T07:08:57.730Z,-0.66
2023-03-03T07:11:26.173Z,-0.65
2023-03-03T07:14:11.683Z,-0.61
2023-03-03T07:16:40.099Z,-0.61
2023-03-03T07:19:18.636Z,-0.62
2023-03-03T07:21:46.837Z,-0.60
2023-03-03T07:24:28.595Z,-0.62
2023-03-03T07:27:02.330Z,-0.61
2023-03-03T07:29:31.480Z,-0.58
2023-03-03T07:32:00.801Z,-0.60
2023-03-03T07:34:32.767Z,-0.57
2023-03-03T07:37:04.756Z,-0.52
2023-03-03T07:39:40.371Z,-0.45
2023-03-03T07:42:21.491Z,-0.41
2023-03-03T07:44:53.395Z,-0.34
2023-03-03T07:47:24.446Z,-0.31
2023-03-03T07:49:55.556Z,-0.28
2023-03-03T07:52:33.877Z,-0.23
2023-03-03T07:55:03.703Z,-0.20
2023-03-03T07:57:36.824Z,-0.21
2023-03-03T08:00:54.461Z,-0.21
2023-03-03T08:03:24.053Z,-0.18
2023-03-03T08:05:52.822Z,-0.15
2023-03-03T08:08:32.876Z,-0.14
2023-03-03T08:11:03.103Z,-0.13
2023-03-03T08:13:38.540Z,-0.09
2023-03-03T08:16:26.547Z,-0.09
2023-03-03T08:18:59.647Z,0.00
2023-03-03T08:21:33.394Z,0.00
2023-03-03T08:24:01.736Z,0.01
2023-03-03T08:26:30.077Z,0.06
2023-03-03T08:28:59.676Z,0.08
2023-03-03T08:31:40.877Z,0.07
2023-03-03T08:34:11.284Z,0.17
2023-03-03T08:36:41.124Z,0.21
2023-03-03T08:39:10.402Z,0.29
2023-03-03T08:41:39.124Z,0.34
2023-03-03T08:44:07.377Z,0.41
2023-03-03T08:46:35.705Z,0.46
2023-03-03T08:49:05.995Z,0.55
2023-03-03T08:51:35.915Z,0.61
2023-03-03T08:54:07.749Z,0.66
2023-03-03T08:56:36.179Z,0.68
2023-03-03T08:59:05.171Z,0.66
2023-03-03T09:01:33.911Z,0.68
2023-03-03T09:04:02.319Z,0.75
2023-03-03T09:06:31.692Z,0.82
2023-03-03T09:09:01.207Z,0.92
2023-03-03T09:11:31.197Z,0.96
2023-03-03T09:14:04.246Z,1.06
2023-03-03T09:16:37.900Z,1.10
2023-03-03T09:19:17.884Z,1.19
2023-03-03T09:21:47.441Z,1.24
2023-03-03T09:24:26.276Z,1.30
2023-03-03T09:26:54.994Z,1.35
2023-03-03T09:29:29.064Z,1.35
2023-03-03T09:31:58.920Z,1.37
2023-03-03T09:34:37.267Z,1.41
2023-03-03T09:37:18.594Z,1.41
2023-03-03T09:39:55.141Z,1.43
2023-03-03T09:42:43.305Z,1.54
2023-03-03T09:45:28.452Z,1.59
2023-03-03T09:48:14.752Z,1.72
2023-03-03T09:50:55.406Z,1.86
2023-03-03T09:53:35.219Z,1.93
2023-03-03T09:56:12.543Z,1.96
2023-03-03T09:58:48.338Z,2.06
2023-03-03T10:01:41.405Z,2.14
2023-03-03T10:04:19.896Z,2.17
2023-03-03T10:06:53.647Z,2.19
2023-03-03T10:09:50.717Z,2.29
2023-03-03T10:12:26.698Z,2.40
2023-03-03T10:15:05.337Z,2.51
2023-03-03T10:17:42.686Z,2.60
2023-03-03T10:20:29.494Z,2.70
2023-03-03T10:23:10.754Z,2.75
2023-03-03T10:25:42.375Z,2.72
2023-03-03T10:28:32.373Z,2.70
2023-03-03T10:31:16.801Z,2.72
2023-03-03T10:33:53.590Z,2.84
2023-03-03T10:36:35.877Z,3.03
2023-03-03T10:39:14.966Z,3.18
2023-03-03T10:42:02.336Z,3.16
2023-03-03T10:44:52.094Z,3.15
2023-03-03T10:47:42.480Z,3.20
2023-03-03T10:50:18.309Z,3.29
2023-03-03T10:52:50.060Z,3.31
2023-03-03T10:55:32.940Z,3.39
2023-03-03T10:58:23.422Z,3.37
2023-03-03T11:01:01.784Z,3.37
2023-03-03T11:04:01.612Z,3.40
2023-03-03T11:06:38.863Z,3.37
2023-03-03T11:09:14.329Z,3.37
2023-03-03T11:11:50.109Z,3.34
2023-03-03T11:14:24.397Z,3.40
2023-03-03T11:17:01.409Z,3.46
2023-03-03T11:19:39.094Z,3.44
2023-03-03T11:22:16.840Z,3.37
2023-03-03T11:24:54.583Z,3.44
2023-03-03T11:27:38.123Z,3.43
2023-03-03T11:30:30.861Z,3.39
2023-03-03T11:33:05.219Z,3.43
2023-03-03T11:35:38.707Z,3.53
2023-03-03T11:38:25.572Z,3.56
2023-03-03T11:40:58.481Z,3.54
2023-03-03T11:43:37.045Z,3.57
2023-03-03T11:46:08.737Z,3.60
2023-03-03T11:48:47.424Z,3.67
2023-03-03T11:51:17.224Z,3.73
2023-03-03T11:53:52.055Z,3.75
2023-03-03T11:56:27.374Z,3.74
2023-03-03T11:59:08.289Z,3.77
2023-03-03T12:01:40.541Z,3.87
2023-03-03T12:04:13.586Z,3.97
2023-03-03T12:07:16.827Z,4.03
2023-03-03T12:09:54.260Z,4.03
2023-03-03T12:12:27.741Z,4.16
2023-03-03T12:15:05.549Z,4.20
2023-03-03T12:17:52.002Z,4.18
2023-03-03T12:20:27.762Z,4.22
2023-03-03T12:23:07.413Z,4.28
2023-03-03T12:25:39.073Z,4.26
2023-03-03T12:28:12.244Z,4.29
2023-03-03T12:31:03.868Z,4.25
2023-03-03T12:33:41.829Z,4.15
2023-03-03T12:36:22.282Z,4.19
2023-03-03T12:38:55.652Z,4.30
2023-03-03T12:41:45.179Z,4.42
2023-03-03T12:44:19.368Z,4.40
2023-03-03T12:46:57.198Z,4.39
2023-03-03T12:49:34.595Z,4.40
2023-03-03T12:52:12.179Z,4.42
2023-03-03T12:54:55.831Z,4.43
2023-03-03T12:57:33.267Z,4.38
2023-03-03T13:00:20.767Z,4.38
2023-03-03T13:02:58.500Z,4.40
2023-03-03T13:05:31.416Z,4.50
2023-03-03T13:08:15.725Z,4.56
2023-03-03T13:10:47.194Z,4.59
2023-03-03T13:13:21.222Z,4.64
2023-03-03T13:15:58.413Z,4.73
2023-03-03T13:18:40.029Z,4.71
2023-03-03T13:21:13.070Z,4.71
2023-03-03T13:23:56.378Z,4.71
2023-03-03T13:26:30.821Z,4.73
2023-03-03T13:29:05.832Z,4.77
2023-03-03T13:31:35.670Z,4.80
2023-03-03T13:34:04.448Z,4.77
2023-03-03T13:36:36.522Z,4.77
2023-03-03T13:39:13.462Z,4.74
2023-03-03T13:41:48.003Z,4.80
2023-03-03T13:44:22.177Z,4.84
2023-03-03T13:47:05.369Z,4.81
2023-03-03T13:49:43.071Z,4.77
2023-03-03T13:52:13.935Z,4.74
2023-03-03T13:55:13.887Z,4.68
2023-03-03T13:57:51.117Z,4.59
2023-03-03T14:00:39.257Z,4.59
2023-03-03T14:03:21.648Z,4.60
2023-03-03T14:05:51.560Z,4.64
2023-03-03T14:08:30.202Z,4.71
2023-03-03T14:11:10.655Z,4.78
2023-03-03T14:13:45.843Z,4.84
2023-03-03T14:16:20.512Z,4.88
2023-03-03T14:18:56.433Z,4.95
2023-03-03T14:21:29.589Z,5.03
2023-03-03T14:24:01.844Z,5.07
2023-03-03T14:26:32.927Z,5.14
2023-03-03T14:29:23.598Z,5.16
2023-03-03T14:31:52.070Z,5.18
2023-03-03T14:34:41.583Z,5.21
2023-03-03T14:37:24.506Z,5.24
2023-03-03T14:40:02.801Z,5.29
2023-03-03T14:42:37.082Z,5.34
2023-03-03T14:45:29.842Z,5.31
2023-03-03T14:48:06.447Z,5.34
2023-03-03T14:50:38.700Z,5.39
2023-03-03T14:53:13.556Z,5.39
2023-03-03T14:55:43.650Z,5.43
2023-03-03T14:58:32.325Z,5.45
2023-03-03T15:01:17.363Z,5.42
2023-03-03T15:03:49.238Z,5.46
2023-03-03T15:06:42.512Z,5.42
2023-03-03T15:09:37.233Z,5.36
2023-03-03T15:12:20.324Z,5.26
2023-03-03T15:14:51.096Z,5.21
2023-03-03T15:17:31.149Z,5.19
2023-03-03T15:20:07.506Z,5.19
2023-03-03T15:22:55.570Z,5.14
2023-03-03T15:25:41.901Z,5.09
2023-03-03T15:28:23.872Z,5.09
2023-03-03T15:30:57.703Z,5.08
2023-03-03T15:33:30.666Z,5.03
2023-03-03T15:36:04.798Z,4.98
2023-03-03T15:38:40.611Z,4.97
2023-03-03T15:41:25.016Z,4.97
2023-03-03T15:44:00.055Z,4.98
2023-03-03T15:46:40.894Z,4.99
2023-03-03T15:49:19.320Z,4.98
2023-03-03T15:52:06.836Z,4.98
2023-03-03T15:54:40.243Z,4.97
2023-03-03T15:57:16.755Z,4.94
2023-03-03T16:00:00.580Z,4.88
2023-03-03T16:02:42.856Z,4.91
2023-03-03T16:05:15.497Z,4.92
2023-03-03T16:07:51.146Z,4.92
2023-03-03T16:10:35.024Z,4.88
2023-03-03T16:13:21.980Z,4.78
2023-03-03T16:16:02.214Z,4.68
2023-03-03T16:18:40.627Z,4.64
2023-03-03T16:21:21.564Z,4.61
2023-03-03T16:23:54.793Z,4.53
2023-03-03T16:26:40.439Z,4.49
2023-03-03T16:29:22.288Z,4.42
2023-03-03T16:31:54.732Z,4.33
2023-03-03T16:34:27.682Z,4.25
2023-03-03T16:37:05.283Z,4.19
2023-03-03T16:39:42.952Z,4.10
2023-03-03T16:42:21.464Z,4.03
2023-03-03T16:45:03.121Z,3.97
2023-03-03T16:47:41.355Z,3.91
2023-03-03T16:50:32.097Z,3.91
2023-03-03T16:53:06.248Z,3.84
2023-03-03T16:55:39.339Z,3.73
2023-03-03T16:58:17.414Z,3.64
2023-03-03T17:00:52.348Z,3.53
2023-03-03T17:03:26.292Z,3.47
2023-03-03T17:05:58.033Z,3.37
2023-03-03T17:09:05.440Z,3.29
2023-03-03T17:11:45.014Z,3.26
2023-03-03T17:14:36.538Z,3.22
2023-03-03T17:17:12.408Z,3.19
2023-03-03T17:19:50.711Z,3.13
2023-03-03T17:22:28.363Z,3.09
2023-03-03T17:25:14.054Z,3.06
2023-03-03T17:27:53.588Z,3.01
2023-03-03T17:30:23.595Z,2.98
2023-03-03T17:33:03.706Z,2.91
2023-03-03T17:35:59.619Z,2.85
2023-03-03T17:38:39.515Z,2.78
2023-03-03T17:41:11.750Z,2.77
2023-03-03T17:43:47.360Z,2.71
2023-03-03T17:46:20.907Z,2.65
2023-03-03T17:49:08.426Z,2.58
2023-03-03T17:51:52.778Z,2.54
2023-03-03T17:54:32.451Z,2.57
2023-03-03T17:57:11.469Z,2.61
2023-03-03T17:59:51.271Z,2.64
2023-03-03T18:02:51.664Z,2.65
2023-03-03T18:05:30.314Z,2.72
2023-03-03T18:08:16.781Z,2.75
2023-03-03T18:11:17.352Z,2.81
2023-03-03T18:14:16.153Z,2.82
2023-03-03T18:17:14.225Z,2.82
2023-03-03T18:19:59.195Z,2.87
2023-03-03T18:22:33.476Z,2.85
2023-03-03T18:25:06.329Z,2.89
2023-03-03T18:27:37.613Z,2.91
2023-03-03T18:30:25.139Z,2.96
2023-03-03T18:33:11.565Z,2.96
2023-03-03T18:35:44.052Z,2.96
2023-03-03T18:38:26.726Z,2.95
2023-03-03T18:40:58.381Z,3.01
2023-03-03T18:43:55.974Z,2.98
2023-03-03T18:46:50.221Z,3.01
2023-03-03T18:49:19.113Z,3.02
2023-03-03T18:52:16.496Z,3.02
2023-03-03T18:54:44.730Z,3.03
2023-03-03T18:57:21.017Z,3.03
2023-03-03T19:00:17.034Z,3.05
2023-03-03T19:02:54.136Z,3.08
2023-03-03T19:05:26.255Z,3.09
2023-03-03T19:08:00.472Z,3.10
2023-03-03T19:10:55.363Z,3.12
2023-03-03T19:13:47.614Z,3.13
2023-03-03T19:16:37.989Z,3.16
2023-03-03T19:19:11.856Z,3.18
2023-03-03T19:21:43.047Z,3.19
2023-03-03T19:24:28.599Z,3.19
2023-03-03T19:27:11.725Z,3.20
2023-03-03T19:30:05.837Z,3.22
2023-03-03T19:33:01.134Z,3.23
2023-03-03T19:35:40.678Z,3.20
2023-03-03T19:38:21.549Z,3.23
2023-03-03T19:41:00.422Z,3.22
2023-03-03T19:43:38.893Z,3.19
2023-03-03T19:46:21.526Z,3.16
2023-03-03T19:48:54.829Z,3.15
2023-03-03T19:51:27.875Z,3.13
2023-03-03T19:54:03.797Z,3.13
2023-03-03T19:56:38.852Z,3.10
2023-03-03T19:59:19.200Z,3.06
2023-03-03T20:02:03.185Z,3.05
2023-03-03T20:05:01.482Z,3.05
2023-03-03T20:07:34.234Z,3.01
2023-03-03T20:10:13.659Z,3.02
2023-03-03T20:12:53.533Z,2.96
2023-03-03T20:15:25.178Z,2.95
2023-03-03T20:18:42.407Z,2.93
2023-03-03T20:21:23.278Z,2.92
2023-03-03T20:24:08.878Z,2.93
2023-03-03T20:26:45.028Z,2.91
2023-03-03T20:29:29.277Z,2.93
2023-03-03T20:32:06.248Z,2.91
2023-03-03T20:34:42.697Z,2.92
2023-03-03T20:37:14.840Z,2.93
2023-03-03T20:39:54.611Z,2.93
2023-03-03T20:42:34.496Z,2.93
2023-03-03T20:45:14.904Z,2.92
2023-03-03T20:47:53.613Z,2.95
2023-03-03T20:50:35.376Z,2.93
2023-03-03T20:53:20.188Z,2.95
2023-03-03T20:55:56.833Z,2.95
2023-03-03T20:58:29.801Z,2.95
2023-03-03T21:01:04.357Z,2.96
2023-03-03T21:03:36.365Z,3.01
2023-03-03T21:06:09.079Z,2.99
2023-03-03T21:08:48.590Z,2.98
2023-03-03T21:11:19.085Z,2.99
2023-03-03T21:13:49.410Z,3.01
2023-03-03T21:16:33.382Z,2.99
2023-03-03T21:19:03.575Z,3.01
2023-03-03T21:21:33.426Z,3.01
2023-03-03T21:24:03.802Z,2.98
2023-03-03T21:26:54.347Z,2.95
2023-03-03T21:29:27.688Z,2.92
2023-03-03T21:31:57.584Z,2.89
2023-03-03T21:34:29.335Z,2.89
2023-03-03T21:36:58.234Z,2.88
2023-03-03T21:39:30.296Z,2.85
2023-03-03T21:42:01.812Z,2.81
2023-03-03T21:44:38.630Z,2.77
2023-03-03T21:47:09.137Z,2.75
2023-03-03T21:49:42.733Z,2.74
2023-03-03T21:52:11.817Z,2.72
2023-03-03T21:54:41.575Z,2.71
2023-03-03T21:57:09.946Z,2.66
2023-03-03T21:59:38.380Z,2.65
2023-03-03T22:02:07.748Z,2.64
2023-03-03T22:04:38.992Z,2.62
2023-03-03T22:07:10.008Z,2.60
2023-03-03T22:09:41.215Z,2.58
2023-03-03T22:12:10.510Z,2.57
2023-03-03T22:14:38.484Z,2.58
2023-03-03T22:17:06.585Z,2.57
2023-03-03T22:19:35.854Z,2.58
2023-03-03T22:22:04.994Z,2.57
2023-03-03T22:24:35.497Z,2.57
2023-03-03T22:27:06.879Z,2.52
2023-03-03T22:29:35.379Z,2.50
2023-03-03T22:32:04.283Z,2.47
2023-03-03T22:34:32.585Z,2.41
2023-03-03T22:37:00.966Z,2.37
2023-03-03T22:39:32.602Z,2.38
2023-03-03T22:42:01.718Z,2.36
2023-03-03T22:44:31.454Z,2.33
2023-03-03T22:47:00.542Z,2.33
2023-03-03T22:49:28.911Z,2.29
2023-03-03T22:51:58.952Z,2.29
2023-03-03T22:54:27.303Z,2.26
2023-03-03T22:56:56.072Z,2.24
2023-03-03T22:59:26.312Z,2.23
2023-03-03T23:01:57.543Z,2.23
2023-03-03T23:04:26.054Z,2.14
2023-03-03T23:06:54.336Z,2.09
2023-03-03T23:09:24.591Z,2.03
2023-03-03T23:11:52.599Z,1.98
2023-03-03T23:14:20.756Z,1.83
2023-03-03T23:16:48.925Z,1.76
2023-03-03T23:19:21.080Z,1.65
2023-03-03T23:22:03.896Z,1.59
2023-03-03T23:24:37.254Z,1.51
2023-03-03T23:27:05.989Z,1.43
2023-03-03T23:29:36.667Z,1.37
2023-03-03T23:32:06.315Z,1.27
2023-03-03T23:34:38.736Z,1.19
2023-03-03T23:37:07.164Z,1.13
2023-03-03T23:39:36.647Z,1.08
2023-03-03T23:42:05.571Z,1.07
2023-03-03T23:44:35.154Z,1.01
2023-03-03T23:47:03.712Z,0.97
2023-03-03T23:49:36.699Z,0.96
2023-03-03T23:52:07.408Z,0.93
2023-03-03T23:54:38.910Z,0.90
2023-03-03T23:57:12.695Z,0.86
2023-03-03T23:59:55.228Z,0.85
